Flight Track Log - Related Links

Times and Time Zones

All times are in EDT time to prevent confusion due to time zone crossing. See the FLG4126 flight status page for this flight to view local times or setup timezone preferences in your user account.

Time Position Orientation Groundspeed Altitude Reporting Facility
EDT Latitude Longitude Course Direction KTS MPH feet Rate Location/Type
Sun 12:20:05 PM 41.9833 -87.9500 304° West 188 216 2,500  Level Chicago TRACON
Sun 12:21:05 PM 42.0167 -88.0167 304° West 223 257 4,600 1,250 Climbing Chicago TRACON
Sun 12:22:05 PM 42.0833 -88.0500 340° North 273 314 5,000 330 Climbing Chicago TRACON
Sun 12:22:36 PM 42.1239 -88.0594 350° North 270 311 5,100 2,283 Climbing Chicago Center
Sun 12:23:37 PM 42.2000 -88.0644 357° North 274 315 8,500 3,122 Climbing Chicago Center
Sun 12:24:39 PM 42.2842 -88.0667 359° North 282 325 11,500 2,516 Climbing Chicago Center
Sun 12:25:41 PM 42.3625 -88.0689 359° North 296 341 13,700 1,694 Climbing Chicago Center
Sun 12:26:43 PM 42.4514 -88.0658 North 312 359 15,000 1,742 Climbing Chicago Center
Sun 12:27:45 PM 42.5375 -88.0908 348° North 315 362 17,300 1,984 Climbing Chicago Center
Sun 12:28:47 PM 42.6433 -88.1289 345° North 327 376 19,100 1,500 Climbing Chicago Center
Sun 12:29:49 PM 42.7439 -88.1608 347° North 365 420 20,400 1,392 Climbing Chicago Center
Sun 12:30:52 PM 42.8492 -88.1992 345° North 383 441 22,000 1,536 Climbing Chicago Center
Sun 12:31:54 PM 42.9231 -88.3039 314° West 380 437 23,600 1,597 Climbing Chicago Center
Sun 12:32:56 PM 42.9983 -88.4072 315° West 380 437 25,300 1,645 Climbing Chicago Center
Sun 12:33:58 PM 43.0747 -88.5142 314° West 386 444 27,000 1,597 Climbing Chicago Center
Sun 12:35:00 PM 43.1664 -88.6417 315° West 387 445 28,600 1,355 Climbing Chicago Center
Sun 12:36:02 PM 43.2442 -88.7508 314° West 390 449 29,800 1,016 Climbing Chicago Center
Sun 12:37:04 PM 43.3233 -88.8650 314° West 405 466 30,700 864 Climbing Chicago Center
Sun 12:38:07 PM 43.4036 -88.9792 314° West 409 471 31,600 1,113 Climbing Chicago Center
Sun 12:39:08 PM 43.4844 -89.0956 314° West 414 476 33,000 1,171 Climbing Chicago Center
Sun 12:40:10 PM 43.5628 -89.2083 314° West 413 475 34,000 480 Climbing Chicago Center
Sun 12:41:13 PM 43.6417 -89.3211 314° West 408 470 34,000  Level Chicago Center
Sun 12:42:15 PM 43.7350 -89.4569 314° West 408 470 34,000  Level Chicago Center
Sun 12:43:17 PM 43.8117 -89.5694 313° West 407 468 34,000  Level Chicago Center
Sun 12:44:19 PM 43.8878 -89.6825 313° West 403 464 34,000  Level Chicago Center
Sun 12:45:21 PM 43.9633 -89.7933 313° West 399 459 34,000  Level Chicago Center
Sun 12:46:23 PM 44.0389 -89.9047 313° West 399 459 34,000  Level Chicago Center
Sun 12:47:25 PM 44.0942 -90.0342 301° West 393 452 34,000  Level Chicago Center
Sun 12:48:27 PM 44.1625 -90.1867 302° West 391 450 34,000  Level Chicago Center
Sun 12:49:29 PM 44.2156 -90.3078 301° West 391 450 34,000 -339 Level Chicago Center
Sun 12:50:31 PM 44.2731 -90.4417 301° West 403 464 33,300 -1,248 Descending Chicago Center
Sun 12:51:34 PM 44.3339 -90.5819 301° West 421 484 31,400 -1,968 Descending Chicago Center
Sun 12:52:36 PM 44.4056 -90.7444 302° West 420 483 29,200 -1,984 Descending Chicago Center
Sun 12:53:38 PM 44.4633 -90.8811 301° West 417 480 27,300 -1,839 Descending Chicago Center
Sun 12:54:40 PM 44.5192 -91.0131 301° West 405 466 25,400 -1,597 Descending Chicago Center
Sun 12:55:42 PM 44.5753 -91.1422 301° West 399 459 24,000 -677 Descending Chicago Center
Sun 12:56:44 PM 44.6286 -91.2722 300° West 393 452 24,000 -529 Level Chicago Center
Sun 12:57:58 PM 44.7053 -91.4536 301° West 393 452 22,800 -1,412 Descending Minneapolis Center
Sun 12:59:00 PM 44.7594 -91.5847 300° West 389 448 20,800 -1,920 Descending Minneapolis Center
Sun 01:00:03 PM 44.8144 -91.7161 301° West 389 448 18,800 -1,872 Descending Minneapolis Center
Sun 01:01:05 PM 44.8678 -91.8431 301° West 385 443 16,900 -2,081 Descending Minneapolis Center
Sun 01:02:07 PM 44.9292 -91.9933 300° West 372 428 14,500 -1,881 Descending Minneapolis Center
Sun 01:04:10 PM 45.0233 -92.2231 300° West 335 386 11,100 -1,135 Descending Minneapolis Center
Sun 01:05:12 PM 45.0475 -92.3331 287° West 313 360 11,000 -732 Descending Minneapolis Center
Sun 01:06:13 PM 45.0136 -92.4297 244° Southwest 275 316 9,600 -1,561 Descending Minneapolis Center
Sun 01:07:15 PM 44.9742 -92.5114 236° Southwest 258 297 7,800 -1,258 Descending Minneapolis Center
Sun 01:08:17 PM 44.9350 -92.5939 236° Southwest 255 293 7,000 -532 Descending Minneapolis Center
Sun 01:09:19 PM 44.8872 -92.6928 236° Southwest 255 293 6,700 -1,122 Descending Minneapolis Center
Sun 01:10:20 PM 44.8478 -92.7733 235° Southwest 253 291 4,700 -1,317 Descending Minneapolis Center
Sun 01:11:22 PM 44.8117 -92.8550 238° Southwest 250 288 4,000 -484 Descending Minneapolis Center
Sun 01:12:24 PM 44.8094 -92.9500 268° West 244 281 3,700 -488 Descending Minneapolis Center
Sun 01:13:25 PM 44.8183 -93.0356 278° West 222 255 3,000 -537 Descending Minneapolis Center
Sun 01:14:27 PM 44.8356 -93.0897 294° West 151 174 2,600 -677 Descending Minneapolis Center
Sun 01:15:29 PM 44.8608 -93.1467 302° West 147 169 1,600 -968 Descending Minneapolis Center
Sun 01:17:00 PM 44.8667 -93.2167 245° Southwest  Level FlightAware Approximate
Sun 01:24:00 PM 44.8820 -93.2218 245° Southwest  Level Estimated
Sun 01:25:00 PM 44.8820 -93.2218 245° Southwest  Level Estimated

Login

Don't have an account? Register now (free) for customized features, flight alerts, and more!